Vulcan, Canada
Current Conditions -  °F | °C
As of 6:00 AM on Friday 31 Oct 2014 (Local Time) from CYQL Reporting Station
Overcast Overcast  
Wind Chill:   Ceiling: 15000
Heat Index:   Visibility: 15mi
Dew Point:   Wind: 0mph
Humidity: 81%   Direction: NA
Pressure: 29.77"   Gusts: NA
Location:  50.4°N, 113.25°W
Report Text: CYQL 311200Z 00000KT 15SM OVC150 05/02 A2977 RMK AC8 SLP097
Loading
Personal Weather Stations






























Interactive Weather Map
Tropical Storm Tracking
New forecast layout! Learn more

10-Day Weather Forecast

Advertisements
Track Severe Weather on mobile